Time;durP1;ratioP1;P1;durP2;ratioP2;P2;SDS_P1;SDS_P2;PMS_P1;PMS_P2;Temp;Humidity;BMP_temperature;BMP_pressure;BME280_temperature;BME280_humidity;BME280_pressure;Samples;Min_cycle;Max_cycle;Signal;HPM_P1;HPM_P2
2021/12/07 00:01:06;;;;;;;5.20;2.97;;;2.90;99.90;;;;;;5033593;28;20030;-58
2021/12/07 00:03:32;;;;;;;7.10;3.72;;;2.80;99.90;;;;;;5032625;28;20344;-62
2021/12/07 00:05:58;;;;;;;4.82;2.67;;;2.80;99.90;;;;;;5032072;28;20374;-58
2021/12/07 00:08:25;;;;;;;6.57;3.35;;;2.60;99.90;;;;;;5032983;28;20442;-56
2021/12/07 00:10:51;;;;;;;5.38;3.50;;;2.50;99.90;;;;;;5048619;28;20030;-65
2021/12/07 00:13:18;;;;;;;3.85;2.72;;;2.60;99.90;;;;;;5032680;28;20102;-58
2021/12/07 00:15:44;;;;;;;5.40;2.80;;;2.60;99.90;;;;;;5033512;28;20024;-58
2021/12/07 00:18:09;;;;;;;4.50;2.72;;;2.60;99.90;;;;;;5033435;28;20053;-62
2021/12/07 00:20:35;;;;;;;3.25;2.80;;;2.60;99.90;;;;;;5033393;28;20426;-57
2021/12/07 00:23:05;;;;;;;5.82;3.42;;;2.60;99.90;;;;;;5033232;28;20052;-63
2021/12/07 00:25:31;;;;;;;4.10;2.70;;;2.60;99.90;;;;;;5032312;28;20036;-67
2021/12/07 00:27:57;;;;;;;4.38;3.15;;;2.60;99.90;;;;;;5031529;28;20021;-63
2021/12/07 00:30:28;;;;;;;4.88;2.85;;;2.60;99.90;;;;;;5033418;28;20030;-56
2021/12/07 00:33:08;;;;;;;6.53;3.05;;;2.70;99.90;;;;;;5032807;28;20151;-54
2021/12/07 00:35:34;;;;;;;3.78;2.42;;;2.60;99.90;;;;;;5032974;28;20494;-59
2021/12/07 00:38:04;;;;;;;6.28;3.58;;;2.50;99.90;;;;;;5031311;28;20025;-65
2021/12/07 00:40:30;;;;;;;6.05;3.15;;;2.30;99.90;;;;;;5032720;28;20080;-60
2021/12/07 00:42:56;;;;;;;5.03;3.65;;;2.30;99.90;;;;;;5032617;28;20105;-65
2021/12/07 00:45:22;;;;;;;5.30;3.30;;;2.30;99.90;;;;;;5031749;28;20120;-66
2021/12/07 00:47:50;;;;;;;4.90;3.72;;;2.40;99.90;;;;;;5032184;28;20033;-55
2021/12/07 00:50:18;;;;;;;7.13;4.13;;;2.30;99.90;;;;;;5031656;28;20383;-57
2021/12/07 00:52:44;;;;;;;5.18;3.60;;;2.40;99.90;;;;;;5032658;28;20351;-57
2021/12/07 00:55:18;;;;;;;5.53;3.15;;;2.30;99.90;;;;;;5032830;28;20112;-62
2021/12/07 00:57:45;;;;;;;6.68;3.72;;;2.20;99.90;;;;;;5031563;28;20025;-60
2021/12/07 01:00:13;;;;;;;6.10;3.03;;;2.50;99.90;;;;;;5032857;28;20100;-63
2021/12/07 01:02:39;;;;;;;5.90;3.42;;;2.40;99.90;;;;;;5031501;28;20033;-64
2021/12/07 01:05:13;;;;;;;6.35;3.47;;;2.30;99.90;;;;;;5032057;28;20239;-64
2021/12/07 01:26:33;;;;;;;5.65;3.10;;;2.80;99.90;;;;;;5032188;28;20056;-60
2021/12/07 01:28:59;;;;;;;4.15;2.90;;;2.90;99.90;;;;;;5031398;28;20478;-60
2021/12/07 01:31:42;;;;;;;4.68;3.30;;;2.90;99.90;;;;;;5032417;28;20029;-60
2021/12/07 01:34:25;;;;;;;5.00;3.40;;;3.00;99.90;;;;;;5031397;28;20041;-61
2021/12/07 01:37:09;;;;;;;3.30;3.00;;;2.80;99.90;;;;;;5031612;28;20332;-60
2021/12/07 01:47:46;;;;;;;4.50;2.90;;;2.50;99.90;;;;;;5031970;28;20128;-65
2021/12/07 01:50:32;;;;;;;7.18;3.25;;;2.40;99.90;;;;;;5031816;28;20061;-60
2021/12/07 02:01:00;;;;;;;5.07;3.38;;;2.40;99.90;;;;;;5031278;28;20434;-61
2021/12/07 02:03:26;;;;;;;4.30;3.28;;;2.30;99.90;;;;;;5031777;28;20179;-59
2021/12/07 02:05:52;;;;;;;5.82;4.43;;;2.50;99.90;;;;;;5031068;28;20036;-65
2021/12/07 02:08:18;;;;;;;5.15;3.83;;;2.60;99.90;;;;;;5031585;28;20102;-54
2021/12/07 02:10:45;;;;;;;5.80;3.72;;;2.50;99.90;;;;;;5031554;28;20033;-55
2021/12/07 02:14:14;;;;;;;4.68;3.97;;;2.20;99.90;;;;;;5030832;28;20120;-55
2021/12/07 02:16:06;;;;;;;6.30;3.95;;;2.30;99.90;;;;;;5030697;28;20057;-63
2021/12/07 02:18:32;;;;;;;6.05;4.50;;;2.30;99.90;;;;;;5031116;28;20160;-58
2021/12/07 02:21:14;;;;;;;5.43;4.55;;;2.20;99.90;;;;;;5030802;28;20143;-57
2021/12/07 02:23:39;;;;;;;6.28;4.30;;;2.30;99.90;;;;;;5031606;28;20171;-66
2021/12/07 02:26:05;;;;;;;6.72;4.97;;;2.50;99.90;;;;;;5030591;28;20116;-67
2021/12/07 02:28:31;;;;;;;7.30;4.75;;;2.50;99.90;;;;;;5030127;28;20087;-57
2021/12/07 02:30:56;;;;;;;7.18;5.15;;;2.70;99.90;;;;;;5029282;28;20092;-61
2021/12/07 02:33:22;;;;;;;6.38;4.97;;;2.60;99.90;;;;;;5029956;28;20022;-57
2021/12/07 02:35:47;;;;;;;5.90;5.20;;;2.70;99.90;;;;;;5031109;28;20030;-58
2021/12/07 02:38:13;;;;;;;6.88;4.53;;;2.90;99.90;;;;;;5030430;28;20447;-56
2021/12/07 02:40:39;;;;;;;7.72;5.45;;;3.00;99.90;;;;;;5031177;28;20459;-60
2021/12/07 02:43:04;;;;;;;5.85;4.35;;;3.10;99.90;;;;;;5030759;28;20033;-62
2021/12/07 02:45:30;;;;;;;6.28;5.25;;;3.20;99.90;;;;;;5031259;28;20030;-54
2021/12/07 02:47:56;;;;;;;7.25;5.22;;;3.30;99.90;;;;;;5030130;28;20032;-62
2021/12/07 02:50:22;;;;;;;4.72;4.28;;;3.30;99.90;;;;;;5031269;28;20429;-54
2021/12/07 02:52:48;;;;;;;5.43;3.88;;;3.40;99.90;;;;;;5031288;28;20026;-62
2021/12/07 02:55:14;;;;;;;5.57;4.07;;;3.50;99.90;;;;;;5029252;28;20029;-55
2021/12/07 02:57:42;;;;;;;4.93;4.20;;;3.60;99.90;;;;;;5029935;28;20029;-62
2021/12/07 03:00:15;;;;;;;5.82;4.32;;;3.50;99.90;;;;;;5045531;28;20040;-57
2021/12/07 03:02:47;;;;;;;5.78;4.38;;;3.60;99.90;;;;;;5030733;28;20501;-61
2021/12/07 03:08:41;;;;;;;6.63;4.55;;;3.60;99.90;;;;;;5030083;28;20037;-60
2021/12/07 03:27:55;;;;;;;6.38;4.25;;;3.80;99.90;;;;;;5030186;28;20037;-76
2021/12/07 03:30:21;;;;;;;7.85;3.75;;;3.90;99.90;;;;;;5030968;28;20044;-64
2021/12/07 03:32:47;;;;;;;4.95;3.72;;;3.80;99.90;;;;;;5030339;28;20033;-53
2021/12/07 03:35:14;;;;;;;5.28;3.03;;;3.90;99.90;;;;;;5030054;28;20430;-65
2021/12/07 03:37:39;;;;;;;4.20;3.72;;;3.90;99.90;;;;;;5030597;28;20105;-57
2021/12/07 03:40:06;;;;;;;4.07;2.75;;;4.00;99.90;;;;;;5029727;28;20128;-59
2021/12/07 03:42:33;;;;;;;6.07;3.78;;;4.00;99.90;;;;;;5030800;28;20096;-58
2021/12/07 03:44:58;;;;;;;4.13;2.78;;;4.00;99.90;;;;;;5033452;28;20080;-55
2021/12/07 03:47:24;;;;;;;5.15;2.72;;;4.00;99.90;;;;;;5032620;28;20037;-57
2021/12/07 03:49:49;;;;;;;4.50;2.60;;;4.00;99.90;;;;;;5032614;28;20044;-65
2021/12/07 03:52:15;;;;;;;4.90;2.42;;;4.00;99.90;;;;;;5033664;28;20580;-64
2021/12/07 03:54:41;;;;;;;5.22;2.45;;;4.10;99.90;;;;;;5033802;28;20128;-61
2021/12/07 03:57:07;;;;;;;7.90;2.67;;;4.10;99.90;;;;;;5033018;28;20026;-60
2021/12/07 03:59:32;;;;;;;6.65;2.70;;;4.10;99.90;;;;;;5033820;28;20480;-60
2021/12/07 04:01:58;;;;;;;7.50;2.30;;;4.20;99.90;;;;;;5031792;28;20163;-58
2021/12/07 04:04:24;;;;;;;5.65;2.75;;;4.20;99.90;;;;;;5033791;28;20323;-55
2021/12/07 04:06:50;;;;;;;4.85;2.17;;;4.20;99.90;;;;;;5033749;28;20029;-63
2021/12/07 04:09:16;;;;;;;7.38;2.30;;;4.30;99.90;;;;;;5031571;28;20124;-56
2021/12/07 04:11:42;;;;;;;4.25;1.85;;;4.20;99.90;;;;;;5032428;28;20076;-55
2021/12/07 04:14:07;;;;;;;5.68;2.40;;;4.30;99.90;;;;;;5032801;28;20482;-55
2021/12/07 04:16:33;;;;;;;4.40;2.17;;;4.30;99.90;;;;;;5032213;28;20213;-66
2021/12/07 04:18:59;;;;;;;4.95;1.98;;;4.40;99.90;;;;;;5047663;28;20050;-66
2021/12/07 04:21:25;;;;;;;3.40;2.17;;;4.40;99.90;;;;;;5032291;28;20415;-63
2021/12/07 04:23:51;;;;;;;4.80;2.03;;;4.40;99.90;;;;;;5033288;28;20066;-56
2021/12/07 04:26:17;;;;;;;6.90;1.83;;;4.40;99.90;;;;;;5032474;28;20658;-62
2021/12/07 04:28:43;;;;;;;8.80;2.00;;;4.50;99.90;;;;;;5031873;28;20036;-57
2021/12/07 04:31:10;;;;;;;12.88;1.95;;;4.50;99.90;;;;;;5032313;28;20017;-61
2021/12/07 04:33:36;;;;;;;8.32;1.52;;;4.50;99.90;;;;;;5033137;28;20033;-57
2021/12/07 04:36:04;;;;;;;4.80;1.67;;;4.50;99.90;;;;;;5030978;28;20029;-54
2021/12/07 04:38:30;;;;;;;4.68;1.77;;;4.60;99.90;;;;;;5033104;28;20025;-61
2021/12/07 04:40:56;;;;;;;9.15;2.50;;;4.70;99.90;;;;;;5032906;28;20342;-65
2021/12/07 04:43:22;;;;;;;7.00;1.50;;;4.70;99.90;;;;;;5030825;28;20102;-61
2021/12/07 04:46:06;;;;;;;6.03;1.83;;;4.70;99.90;;;;;;5031483;28;20112;-61
2021/12/07 04:59:15;;;;;;;11.98;1.77;;;4.80;99.90;;;;;;5031602;28;20549;-59
2021/12/07 05:01:42;;;;;;;4.22;1.55;;;4.80;99.90;;;;;;5032217;28;20490;-58
2021/12/07 05:04:13;;;;;;;8.55;1.50;;;4.80;99.90;;;;;;5030146;28;20114;-54
2021/12/07 05:06:46;;;;;;;;;;;4.90;99.90;;;;;;5031642;28;20507;-58
2021/12/07 05:14:29;;;;;;;6.20;1.85;;;4.90;99.90;;;;;;5031554;28;20087;-63
2021/12/07 05:38:49;;;;;;;5.88;1.50;;;5.00;99.90;;;;;;5031753;28;20112;-65
2021/12/07 05:41:15;;;;;;;8.73;2.63;;;5.10;99.90;;;;;;5031403;28;20105;-61
2021/12/07 05:43:41;;;;;;;10.60;2.00;;;5.10;99.90;;;;;;5032110;28;20034;-64
2021/12/07 05:46:06;;;;;;;4.57;2.13;;;5.20;99.90;;;;;;5029620;28;20045;-65
2021/12/07 05:48:32;;;;;;;15.50;2.53;;;5.20;99.90;;;;;;5031823;28;20041;-62
2021/12/07 05:50:58;;;;;;;7.43;2.40;;;5.20;99.90;;;;;;5031704;28;20026;-57
2021/12/07 05:53:24;;;;;;;7.88;2.38;;;5.20;99.90;;;;;;5030824;28;20412;-60
2021/12/07 05:55:49;;;;;;;8.07;2.67;;;5.20;99.90;;;;;;5031647;28;20029;-64
2021/12/07 05:58:16;;;;;;;6.90;3.05;;;5.30;99.90;;;;;;5030870;28;20039;-61
2021/12/07 06:00:45;;;;;;;10.10;1.88;;;5.30;99.90;;;;;;5030294;28;20038;-56
2021/12/07 06:03:12;;;;;;;9.27;2.35;;;5.30;99.90;;;;;;5030073;28;20375;-61
2021/12/07 06:05:39;;;;;;;10.32;2.72;;;5.30;99.90;;;;;;5030467;28;20518;-60
2021/12/07 06:08:05;;;;;;;8.00;2.63;;;5.30;99.90;;;;;;5030540;28;20026;-62
2021/12/07 06:10:32;;;;;;;9.10;2.17;;;5.40;99.90;;;;;;5031158;28;20087;-60
2021/12/07 06:12:58;;;;;;;5.53;2.55;;;5.30;99.90;;;;;;5031397;28;20445;-58
2021/12/07 06:15:26;;;;;;;6.95;1.85;;;5.30;99.90;;;;;;5030596;28;20516;-60
2021/12/07 06:17:52;;;;;;;10.70;2.67;;;5.30;99.90;;;;;;5030986;28;20041;-61
2021/12/07 06:20:20;;;;;;;12.93;2.13;;;5.30;99.90;;;;;;5029356;28;20443;-62
2021/12/07 06:22:46;;;;;;;7.40;1.98;;;5.40;99.90;;;;;;5029210;28;20026;-62
2021/12/07 06:25:12;;;;;;;14.13;2.30;;;5.30;99.90;;;;;;5030634;28;20030;-61
2021/12/07 06:27:38;;;;;;;8.43;2.20;;;5.40;99.90;;;;;;5030915;28;20025;-62
2021/12/07 06:30:06;;;;;;;4.63;1.90;;;5.30;99.90;;;;;;5030920;28;20087;-61
2021/12/07 06:32:32;;;;;;;8.43;2.55;;;5.30;99.90;;;;;;5030554;28;20025;-61
2021/12/07 06:34:58;;;;;;;7.43;1.92;;;5.30;99.90;;;;;;5030709;28;20044;-57
2021/12/07 06:37:24;;;;;;;10.10;2.55;;;5.20;99.90;;;;;;5030004;28;20085;-58
2021/12/07 06:39:49;;;;;;;18.10;2.53;;;5.20;99.90;;;;;;5030309;28;20135;-62
2021/12/07 06:42:15;;;;;;;6.97;2.40;;;5.10;99.90;;;;;;5028347;28;20149;-62
2021/12/07 06:44:41;;;;;;;5.00;2.00;;;5.10;99.90;;;;;;5030477;28;20455;-61
2021/12/07 06:47:07;;;;;;;7.13;2.80;;;5.20;99.90;;;;;;5029854;28;20104;-68
2021/12/07 06:49:33;;;;;;;7.53;2.25;;;5.20;99.90;;;;;;5029972;28;20037;-62
2021/12/07 06:51:59;;;;;;;10.05;1.80;;;5.20;99.90;;;;;;5030564;28;20030;-66
2021/12/07 06:54:25;;;;;;;7.03;2.35;;;5.20;99.90;;;;;;5028347;28;20085;-60
2021/12/07 06:56:54;;;;;;;7.95;2.00;;;5.20;99.90;;;;;;5012614;28;20026;-60
2021/12/07 06:59:20;;;;;;;6.05;1.83;;;5.20;99.90;;;;;;5028667;28;20033;-57
2021/12/07 07:01:46;;;;;;;9.15;1.73;;;5.20;99.90;;;;;;5030948;28;20103;-63
2021/12/07 07:04:14;;;;;;;10.05;2.33;;;5.30;99.90;;;;;;5030146;28;20321;-62
2021/12/07 07:06:43;;;;;;;5.72;2.03;;;5.30;99.90;;;;;;5029271;28;20060;-63
2021/12/07 07:09:11;;;;;;;12.80;2.55;;;5.30;99.90;;;;;;5030338;28;20038;-59
2021/12/07 07:11:37;;;;;;;12.30;2.17;;;5.30;99.90;;;;;;5030154;28;20021;-62
2021/12/07 07:14:03;;;;;;;10.50;2.20;;;5.40;99.90;;;;;;5030260;28;20501;-62
2021/12/07 07:16:29;;;;;;;4.70;2.83;;;5.40;99.90;;;;;;5029511;28;20443;-61
2021/12/07 07:18:55;;;;;;;6.63;2.22;;;5.40;99.90;;;;;;5030840;28;20141;-63
2021/12/07 07:21:22;;;;;;;7.60;1.90;;;5.40;99.90;;;;;;5032038;28;20034;-62
2021/12/07 07:23:48;;;;;;;7.47;2.97;;;5.40;99.90;;;;;;5033845;28;20040;-59
2021/12/07 07:26:13;;;;;;;8.27;2.33;;;5.30;99.90;;;;;;5033180;28;20412;-63
2021/12/07 07:28:39;;;;;;;6.70;2.40;;;5.30;99.90;;;;;;5034278;28;20030;-61
2021/12/07 07:31:08;;;;;;;8.30;2.28;;;5.30;99.90;;;;;;5032545;28;20036;-62
2021/12/07 07:33:34;;;;;;;11.15;1.90;;;5.30;99.90;;;;;;5032106;28;20026;-61
2021/12/07 07:35:59;;;;;;;7.15;1.80;;;5.40;99.90;;;;;;5032588;28;20036;-60
2021/12/07 07:38:26;;;;;;;14.45;2.33;;;5.40;99.90;;;;;;5030342;28;20037;-62
2021/12/07 07:40:52;;;;;;;13.60;2.05;;;5.50;99.90;;;;;;5025603;28;20168;-61
2021/12/07 07:43:18;;;;;;;11.18;2.50;;;5.50;99.90;;;;;;5028625;28;20182;-61
2021/12/07 07:45:47;;;;;;;8.55;3.15;;;5.50;99.90;;;;;;5028770;28;20532;-61
2021/12/07 07:48:13;;;;;;;9.25;2.75;;;5.50;99.90;;;;;;5032399;28;20036;-62
2021/12/07 07:50:39;;;;;;;11.18;3.28;;;5.50;99.90;;;;;;5033761;28;20052;-61
2021/12/07 07:53:06;;;;;;;7.30;1.75;;;5.50;99.90;;;;;;5033470;28;20463;-61
2021/12/07 07:55:33;;;;;;;5.65;2.03;;;5.50;99.90;;;;;;5025693;28;20017;-59
2021/12/07 07:57:58;;;;;;;10.50;3.45;;;5.50;99.90;;;;;;5025091;28;20462;-62
2021/12/07 08:00:24;;;;;;;8.63;2.13;;;5.50;99.90;;;;;;5025450;28;20044;-61
2021/12/07 08:02:50;;;;;;;7.47;1.95;;;5.50;99.90;;;;;;5030140;28;20030;-61
2021/12/07 08:05:16;;;;;;;12.50;2.10;;;5.50;99.90;;;;;;5023068;28;20129;-61
2021/12/07 08:07:47;;;;;;;7.05;2.30;;;5.50;99.90;;;;;;5027585;28;20034;-62
2021/12/07 08:10:15;;;;;;;7.25;2.25;;;5.50;99.90;;;;;;5030525;28;20033;-62
2021/12/07 08:12:41;;;;;;;6.85;2.15;;;5.50;99.90;;;;;;5023822;28;20426;-58
2021/12/07 08:15:07;;;;;;;13.77;2.72;;;5.60;99.90;;;;;;5031004;28;20048;-60
2021/12/07 08:17:33;;;;;;;12.45;2.38;;;5.50;99.90;;;;;;5027794;28;20383;-61
2021/12/07 08:19:59;;;;;;;8.55;2.78;;;5.50;99.90;;;;;;5030857;28;20439;-63
2021/12/07 08:22:25;;;;;;;8.50;2.40;;;6.50;99.90;;;;;;5031860;28;20049;-60
2021/12/07 08:24:51;;;;;;;7.93;2.25;;;7.30;99.90;;;;;;5032126;28;20458;-66
2021/12/07 08:27:17;;;;;;;9.57;2.70;;;6.70;99.90;;;;;;5038550;28;20053;-64
2021/12/07 08:29:42;;;;;;;6.57;2.08;;;6.40;99.90;;;;;;5029311;28;20048;-60
2021/12/07 08:32:09;;;;;;;8.25;2.45;;;6.40;99.90;;;;;;5029001;28;20056;-69
2021/12/07 08:34:34;;;;;;;6.30;1.77;;;6.40;99.90;;;;;;5031834;28;20510;-63
2021/12/07 08:37:00;;;;;;;6.90;1.95;;;6.60;99.90;;;;;;5030822;28;20112;-64
2021/12/07 08:39:26;;;;;;;5.93;1.80;;;6.50;99.90;;;;;;5031520;28;20045;-61
2021/12/07 08:41:51;;;;;;;9.90;2.13;;;6.40;99.90;;;;;;5032163;28;20086;-61
2021/12/07 08:44:17;;;;;;;8.70;1.83;;;6.40;99.90;;;;;;5030430;28;20029;-60
2021/12/07 08:46:43;;;;;;;4.72;1.75;;;6.30;99.90;;;;;;5032448;28;20029;-59
2021/12/07 08:49:09;;;;;;;7.60;2.67;;;6.20;99.90;;;;;;5032006;28;20028;-62
2021/12/07 08:51:38;;;;;;;7.43;2.50;;;6.20;99.90;;;;;;5030526;28;20411;-62
2021/12/07 08:59:39;;;;;;;8.68;2.10;;;6.70;99.90;;;;;;5031201;28;20040;-60
2021/12/07 09:02:05;;;;;;;5.18;1.60;;;7.40;99.90;;;;;;5030315;28;20034;-64
2021/12/07 09:04:31;;;;;;;7.38;2.20;;;8.40;99.90;;;;;;5031783;28;20041;-61
2021/12/07 09:06:56;;;;;;;8.52;2.20;;;9.30;99.90;;;;;;5032297;28;20032;-61
2021/12/07 09:09:22;;;;;;;11.45;2.67;;;10.10;99.90;;;;;;5028591;28;20056;-62
2021/12/07 09:11:48;;;;;;;9.70;2.63;;;10.60;99.90;;;;;;5026368;28;20029;-64
2021/12/07 09:14:15;;;;;;;8.52;2.00;;;11.10;99.90;;;;;;5029721;28;20111;-61
2021/12/07 09:16:45;;;;;;;12.23;2.33;;;11.10;99.90;;;;;;5030477;28;20072;-70
2021/12/07 09:19:12;;;;;;;8.65;1.95;;;11.00;99.90;;;;;;5028866;28;20107;-75
2021/12/07 09:21:38;;;;;;;6.25;1.77;;;11.20;99.90;;;;;;5032371;28;20095;-60
2021/12/07 09:24:04;;;;;;;11.82;3.08;;;10.10;99.90;;;;;;5032154;28;20029;-62
2021/12/07 09:26:31;;;;;;;5.20;1.75;;;9.90;99.90;;;;;;5030713;28;20029;-61
2021/12/07 09:28:56;;;;;;;8.32;1.70;;;9.90;99.90;;;;;;5030350;28;20065;-62
2021/12/07 09:31:22;;;;;;;6.43;2.10;;;9.70;99.90;;;;;;5030363;28;20053;-62
2021/12/07 09:33:49;;;;;;;8.10;2.00;;;8.90;99.90;;;;;;5029559;28;20462;-62
2021/12/07 09:36:15;;;;;;;4.43;2.05;;;8.40;99.90;;;;;;5030283;28;20040;-63
2021/12/07 09:38:41;;;;;;;3.85;1.80;;;8.10;99.90;;;;;;5029702;28;20029;-62
2021/12/07 09:41:11;;;;;;;9.98;2.28;;;7.80;99.90;;;;;;5027972;28;20434;-62
2021/12/07 09:43:37;;;;;;;4.72;2.03;;;7.50;99.90;;;;;;5030376;28;20129;-62
2021/12/07 09:46:06;;;;;;;7.68;2.20;;;7.30;99.90;;;;;;5029614;28;20021;-62
2021/12/07 09:48:31;;;;;;;7.00;1.75;;;7.10;99.90;;;;;;5028124;28;20815;-62
2021/12/07 09:50:59;;;;;;;7.35;2.28;;;7.00;99.90;;;;;;5029964;28;20061;-62
2021/12/07 09:53:27;;;;;;;6.32;2.00;;;6.90;99.90;;;;;;5029683;28;20428;-66
2021/12/07 09:55:53;;;;;;;8.07;1.60;;;6.80;99.90;;;;;;5029327;28;20125;-62
2021/12/07 09:58:19;;;;;;;8.77;2.10;;;6.80;99.90;;;;;;5028750;28;20052;-61
2021/12/07 10:00:46;;;;;;;6.75;1.65;;;6.60;99.90;;;;;;5026992;28;20386;-62
2021/12/07 10:03:13;;;;;;;9.30;2.30;;;6.60;99.90;;;;;;5027244;28;20053;-64
2021/12/07 10:05:40;;;;;;;11.05;2.42;;;6.50;99.90;;;;;;5028832;28;20081;-63
2021/12/07 10:08:07;;;;;;;6.82;1.85;;;6.60;99.90;;;;;;5030220;28;20467;-63
2021/12/07 10:10:37;;;;;;;11.30;2.00;;;6.70;99.90;;;;;;5028833;28;20033;-62
2021/12/07 10:13:04;;;;;;;6.00;2.00;;;6.70;99.90;;;;;;5027072;28;20030;-63
2021/12/07 10:15:30;;;;;;;6.97;1.92;;;6.60;99.90;;;;;;5027964;28;20355;-64
2021/12/07 10:18:12;;;;;;;5.38;1.55;;;6.60;99.90;;;;;;5028389;28;20037;-61
2021/12/07 10:20:41;;;;;;;5.75;1.58;;;6.60;99.90;;;;;;5026439;28;20391;-59
2021/12/07 10:23:16;;;;;;;9.20;1.50;;;6.50;99.90;;;;;;5027186;28;20038;-65
2021/12/07 10:25:44;;;;;;;7.85;2.00;;;6.60;99.90;;;;;;5029587;28;20463;-63
2021/12/07 10:28:37;;;;;;;7.72;2.17;;;6.40;99.90;;;;;;5022424;28;20037;-66
2021/12/07 10:31:12;;;;;;;7.88;1.83;;;6.30;99.90;;;;;;5025800;28;20139;-61
2021/12/07 10:33:44;;;;;;;9.68;1.88;;;6.20;99.90;;;;;;5028640;28;20063;-58
2021/12/07 10:36:31;;;;;;;4.22;1.42;;;6.30;99.90;;;;;;5031332;28;20025;-63
2021/12/07 10:39:05;;;;;;;5.28;1.45;;;6.20;99.90;;;;;;5030948;28;20383;-56
2021/12/07 10:41:35;;;;;;;5.97;1.92;;;6.30;99.90;;;;;;5030209;28;20029;-61
2021/12/07 10:44:14;;;;;;;3.80;1.55;;;6.40;99.90;;;;;;5029448;28;20036;-60
2021/12/07 10:46:42;;;;;;;12.32;1.80;;;6.40;99.90;;;;;;5029625;28;20021;-62
2021/12/07 10:49:15;;;;;;;5.95;1.30;;;6.40;99.90;;;;;;5030986;28;20042;-61
2021/12/07 10:52:13;;;;;;;5.28;1.63;;;6.50;99.90;;;;;;5031172;28;20067;-57
2021/12/07 10:54:50;;;;;;;4.28;1.40;;;6.60;99.90;;;;;;5034926;28;20032;-62
2021/12/07 10:57:22;;;;;;;7.60;1.70;;;6.60;99.90;;;;;;5034321;28;20100;-68
2021/12/07 11:00:00;;;;;;;7.97;1.75;;;6.60;99.90;;;;;;5033100;28;20072;-62
2021/12/07 11:02:30;;;;;;;6.32;1.73;;;6.50;99.90;;;;;;5034130;28;20033;-62
2021/12/07 11:04:57;;;;;;;4.28;1.60;;;6.60;99.90;;;;;;5034845;28;20036;-61
2021/12/07 11:07:25;;;;;;;6.63;1.23;;;6.70;99.90;;;;;;5032063;28;20029;-67
2021/12/07 11:10:10;;;;;;;8.77;1.90;;;6.60;99.90;;;;;;5034394;28;20055;-61
2021/12/07 11:12:59;;;;;;;6.05;2.90;;;6.70;99.90;;;;;;5032350;28;20033;-63
2021/12/07 11:15:28;;;;;;;7.28;1.67;;;6.60;99.90;;;;;;5032186;28;20041;-61
2021/12/07 11:18:14;;;;;;;4.65;1.90;;;6.70;99.90;;;;;;5034250;28;20080;-61
2021/12/07 11:20:40;;;;;;;8.73;1.83;;;6.70;99.90;;;;;;5034200;28;20075;-66
2021/12/07 11:23:12;;;;;;;6.72;1.98;;;6.90;99.90;;;;;;5029330;28;20042;-65
2021/12/07 11:31:25;;;;;;;7.72;1.48;;;8.60;99.90;;;;;;5030876;28;20037;-67
2021/12/07 11:33:53;;;;;;;6.97;1.48;;;8.80;99.90;;;;;;5031657;28;20021;-60
2021/12/07 11:36:25;;;;;;;6.35;1.58;;;9.60;99.90;;;;;;5031577;28;20025;-62
2021/12/07 11:38:51;;;;;;;12.10;1.70;;;10.40;99.90;;;;;;5031632;28;20481;-61
2021/12/07 11:41:21;;;;;;;8.85;2.75;;;10.80;99.90;;;;;;5032009;28;20367;-64
2021/12/07 11:44:04;;;;;;;4.05;1.55;;;11.10;99.40;;;;;;5035340;28;20121;-63
2021/12/07 11:46:32;;;;;;;5.05;1.52;;;11.40;99.00;;;;;;5033513;28;20439;-61
2021/12/07 11:49:15;;;;;;;4.78;1.38;;;11.70;99.40;;;;;;5033450;28;20069;-62
2021/12/07 11:51:44;;;;;;;4.55;1.10;;;12.50;96.60;;;;;;5033560;28;20034;-63
2021/12/07 11:54:19;;;;;;;10.50;1.85;;;12.90;96.80;;;;;;5035368;28;20025;-63
2021/12/07 11:56:46;;;;;;;8.50;1.58;;;13.00;95.50;;;;;;5033108;28;20026;-71
2021/12/07 11:59:13;;;;;;;6.85;2.10;;;11.80;96.90;;;;;;5032681;28;20482;-63
2021/12/07 12:01:39;;;;;;;7.32;1.90;;;11.90;96.60;;;;;;5033737;28;20608;-64
2021/12/07 12:04:08;;;;;;;9.52;1.77;;;12.00;96.80;;;;;;5032984;28;20029;-64
2021/12/07 12:06:36;;;;;;;10.90;2.30;;;12.10;96.60;;;;;;5032803;28;20052;-65
2021/12/07 12:09:05;;;;;;;7.93;1.55;;;11.90;95.70;;;;;;5033463;28;20141;-64
2021/12/07 12:11:39;;;;;;;7.95;1.30;;;11.40;96.00;;;;;;5032383;28;20045;-64
2021/12/07 12:14:11;;;;;;;5.63;1.80;;;11.30;96.20;;;;;;5033385;28;20025;-62
2021/12/07 12:16:57;;;;;;;5.45;1.48;;;11.70;96.50;;;;;;5031282;28;20111;-63
2021/12/07 12:19:38;;;;;;;4.90;1.65;;;11.50;95.60;;;;;;5018711;28;20061;-62
2021/12/07 12:22:39;;;;;;;7.57;1.80;;;12.40;95.10;;;;;;5029642;28;20097;-63
2021/12/07 12:25:14;;;;;;;13.00;2.22;;;12.70;94.60;;;;;;5039404;28;20198;-63
2021/12/07 12:27:41;;;;;;;3.30;1.40;;;12.90;93.30;;;;;;5032309;28;20360;-63
2021/12/07 12:30:13;;;;;;;9.85;1.65;;;13.50;91.90;;;;;;5030521;28;20450;-66
2021/12/07 12:32:43;;;;;;;8.57;1.50;;;13.90;91.60;;;;;;5030161;28;20594;-61
2021/12/07 12:35:11;;;;;;;6.85;1.50;;;12.50;91.60;;;;;;5030216;28;20433;-62
2021/12/07 12:37:43;;;;;;;9.70;1.55;;;11.70;92.90;;;;;;5030774;28;20323;-62
2021/12/07 12:40:18;;;;;;;8.88;1.60;;;11.60;93.90;;;;;;5040098;28;20033;-62
2021/12/07 12:42:46;;;;;;;6.38;2.03;;;11.70;93.90;;;;;;5030836;28;20087;-62
2021/12/07 12:45:22;;;;;;;9.65;1.58;;;12.00;93.30;;;;;;5031211;28;20022;-60
2021/12/07 12:48:10;;;;;;;7.40;1.90;;;12.90;92.30;;;;;;5034042;28;20041;-65
2021/12/07 12:50:49;;;;;;;11.60;2.10;;;13.50;91.10;;;;;;5029838;28;20051;-62
2021/12/07 12:53:20;;;;;;;8.20;1.52;;;14.40;88.40;;;;;;5025224;28;20029;-62
2021/12/07 12:55:55;;;;;;;11.35;2.28;;;15.00;84.90;;;;;;5031986;28;20039;-63
2021/12/07 12:58:21;;;;;;;4.00;1.27;;;15.30;85.30;;;;;;5029911;28;20029;-65
2021/12/07 13:01:15;;;;;;;4.93;1.20;;;16.00;80.40;;;;;;5027597;28;20483;-62
2021/12/07 13:03:45;;;;;;;4.10;1.02;;;15.60;78.90;;;;;;5028803;28;20113;-63
2021/12/07 13:06:17;;;;;;;3.72;1.40;;;13.20;81.80;;;;;;5028868;28;20034;-64
2021/12/07 13:09:31;;;;;;;6.13;1.15;;;11.80;87.40;;;;;;5029274;28;20034;-61
2021/12/07 13:12:03;;;;;;;6.10;1.70;;;11.80;90.00;;;;;;5024359;28;20065;-61
2021/12/07 13:14:33;;;;;;;11.15;2.25;;;12.60;88.30;;;;;;5030652;28;20547;-62
2021/12/07 13:17:25;;;;;;;8.05;1.10;;;12.10;87.40;;;;;;5030762;28;20030;-62
2021/12/07 13:20:03;;;;;;;;;;;10.80;90.30;;;;;;5029997;28;20081;-62
2021/12/07 13:22:36;;;;;;;6.68;1.10;;;10.20;91.90;;;;;;5029830;28;19979;-61
2021/12/07 13:25:30;;;;;;;10.45;1.52;;;9.90;92.80;;;;;;5030807;28;20038;-75
2021/12/07 13:28:14;;;;;;;7.80;1.30;;;9.50;93.60;;;;;;5011730;28;20045;-62
2021/12/07 13:30:57;;;;;;;6.97;1.10;;;9.20;94.70;;;;;;5019226;28;20030;-63
2021/12/07 13:33:30;;;;;;;9.77;1.85;;;9.00;94.90;;;;;;5015298;28;20520;-70
2021/12/07 13:35:56;;;;;;;11.10;1.30;;;9.10;98.00;;;;;;5031334;28;20030;-62
2021/12/07 13:38:29;;;;;;;9.25;1.20;;;8.90;98.80;;;;;;5032189;28;20040;-69
2021/12/07 13:41:14;;;;;;;7.72;1.33;;;9.10;98.40;;;;;;5032015;28;20131;-62
2021/12/07 13:43:44;;;;;;;8.05;1.70;;;10.80;95.30;;;;;;5031546;28;20056;-62
2021/12/07 13:46:17;;;;;;;8.13;1.90;;;12.20;93.10;;;;;;5031617;28;20105;-62
2021/12/07 13:48:46;;;;;;;10.52;1.70;;;11.30;91.60;;;;;;5031359;28;20121;-61
2021/12/07 13:51:14;;;;;;;6.57;1.67;;;10.40;92.90;;;;;;5031010;28;20034;-62
2021/12/07 13:53:42;;;;;;;8.68;3.15;;;9.90;93.90;;;;;;5029122;28;20523;-61
2021/12/07 13:56:09;;;;;;;11.35;1.77;;;9.50;95.00;;;;;;5031416;28;20467;-62
2021/12/07 13:58:52;;;;;;;10.15;1.85;;;9.10;96.00;;;;;;5030077;28;20060;-62
2021/12/07 14:01:18;;;;;;;6.88;1.63;;;8.80;96.80;;;;;;5028283;28;20048;-61
2021/12/07 14:03:45;;;;;;;8.45;1.40;;;8.20;98.60;;;;;;5030756;28;20026;-61
2021/12/07 14:06:11;;;;;;;13.38;1.70;;;8.10;98.70;;;;;;5013350;28;20116;-62
2021/12/07 14:08:37;;;;;;;9.50;2.50;;;8.10;99.00;;;;;;5030498;28;20467;-61
2021/12/07 14:11:03;;;;;;;14.75;1.98;;;8.10;99.30;;;;;;5031775;28;20037;-60
2021/12/07 14:13:29;;;;;;;14.55;2.22;;;7.80;99.90;;;;;;5029142;28;20025;-59
2021/12/07 14:15:55;;;;;;;8.80;2.20;;;7.90;99.90;;;;;;5031004;28;20382;-61
2021/12/07 14:18:23;;;;;;;7.13;1.55;;;7.90;99.90;;;;;;5031099;28;20137;-61
2021/12/07 14:20:58;;;;;;;10.27;2.65;;;7.80;99.90;;;;;;5030997;28;20029;-58
2021/12/07 14:23:30;;;;;;;6.60;1.35;;;7.50;99.90;;;;;;5029083;28;20120;-57
2021/12/07 14:26:20;;;;;;;11.18;2.40;;;7.40;99.90;;;;;;5031091;28;20087;-62
2021/12/07 14:28:51;;;;;;;15.75;2.92;;;7.50;99.90;;;;;;5028889;28;20021;-62
2021/12/07 14:31:17;;;;;;;20.08;1.65;;;7.40;99.90;;;;;;5031210;28;20041;-65
2021/12/07 14:33:50;;;;;;;9.05;1.83;;;7.60;99.90;;;;;;5028595;28;20074;-60
2021/12/07 14:36:24;;;;;;;10.95;1.92;;;8.00;99.90;;;;;;5030585;28;20021;-60
2021/12/07 14:38:53;;;;;;;7.85;1.60;;;8.10;99.90;;;;;;5031458;28;20113;-65
2021/12/07 14:41:22;;;;;;;6.18;2.47;;;8.10;99.90;;;;;;5029286;28;20061;-62
2021/12/07 14:43:50;;;;;;;9.55;2.17;;;8.00;99.90;;;;;;5031051;28;20032;-62
2021/12/07 14:46:18;;;;;;;8.55;2.45;;;7.90;99.90;;;;;;5029335;28;20063;-61
2021/12/07 14:48:46;;;;;;;9.00;2.88;;;7.80;99.90;;;;;;5029631;28;20455;-61
2021/12/07 14:51:16;;;;;;;16.33;2.08;;;7.50;99.90;;;;;;5029213;28;20037;-62